sensor_id;sensor_type;location;lat;lon;timestamp;temperature;humidity
25154;DHT22;47555;51.038;6.280;2022-11-20T00:00:47;3.00;99.90
25154;DHT22;47555;51.038;6.280;2022-11-20T00:03:13;3.00;99.90
25154;DHT22;47555;51.038;6.280;2022-11-20T00:05:38;2.90;99.90
25154;DHT22;47555;51.038;6.280;2022-11-20T00:08:04;2.90;99.90
25154;DHT22;47555;51.038;6.280;2022-11-20T00:10:30;2.90;99.90
25154;DHT22;47555;51.038;6.280;2022-11-20T00:12:57;2.90;99.90
25154;DHT22;47555;51.038;6.280;2022-11-20T00:15:23;2.90;99.90
25154;DHT22;47555;51.038;6.280;2022-11-20T00:17:48;2.90;99.90
25154;DHT22;47555;51.038;6.280;2022-11-20T00:20:14;2.90;99.90
25154;DHT22;47555;51.038;6.280;2022-11-20T00:22:40;2.90;99.90
25154;DHT22;47555;51.038;6.280;2022-11-20T00:25:05;2.90;99.90
25154;DHT22;47555;51.038;6.280;2022-11-20T00:27:34;3.00;99.90
25154;DHT22;47555;51.038;6.280;2022-11-20T00:29:59;3.00;99.90
25154;DHT22;47555;51.038;6.280;2022-11-20T00:32:25;3.00;99.90
25154;DHT22;47555;51.038;6.280;2022-11-20T00:34:50;3.00;99.90
25154;DHT22;47555;51.038;6.280;2022-11-20T00:41:10;3.00;99.90
25154;DHT22;47555;51.038;6.280;2022-11-20T00:43:36;3.10;99.90
25154;DHT22;47555;51.038;6.280;2022-11-20T00:46:05;3.10;99.90
25154;DHT22;47555;51.038;6.280;2022-11-20T00:48:31;3.10;99.90
25154;DHT22;47555;51.038;6.280;2022-11-20T00:50:56;3.10;99.90
25154;DHT22;47555;51.038;6.280;2022-11-20T00:53:22;3.10;99.90
25154;DHT22;47555;51.038;6.280;2022-11-20T00:55:56;3.20;99.90
25154;DHT22;47555;51.038;6.280;2022-11-20T00:58:23;3.20;99.90
25154;DHT22;47555;51.038;6.280;2022-11-20T01:00:49;3.20;99.90
25154;DHT22;47555;51.038;6.280;2022-11-20T01:03:18;3.10;99.90
25154;DHT22;47555;51.038;6.280;2022-11-20T01:05:44;3.10;99.90
25154;DHT22;47555;51.038;6.280;2022-11-20T01:08:10;3.10;99.90
25154;DHT22;47555;51.038;6.280;2022-11-20T01:10:36;3.10;99.90
25154;DHT22;47555;51.038;6.280;2022-11-20T01:13:01;3.10;99.90
25154;DHT22;47555;51.038;6.280;2022-11-20T01:22:30;3.20;99.90
25154;DHT22;47555;51.038;6.280;2022-11-20T01:24:56;3.20;99.90
25154;DHT22;47555;51.038;6.280;2022-11-20T01:27:21;3.20;99.90
25154;DHT22;47555;51.038;6.280;2022-11-20T01:29:47;3.20;99.90
25154;DHT22;47555;51.038;6.280;2022-11-20T01:32:12;3.20;99.90
25154;DHT22;47555;51.038;6.280;2022-11-20T01:34:38;3.20;99.90
25154;DHT22;47555;51.038;6.280;2022-11-20T01:37:03;3.20;99.90
25154;DHT22;47555;51.038;6.280;2022-11-20T01:39:29;3.30;99.90
25154;DHT22;47555;51.038;6.280;2022-11-20T01:41:56;3.20;99.90
25154;DHT22;47555;51.038;6.280;2022-11-20T01:45:00;3.30;99.90
25154;DHT22;47555;51.038;6.280;2022-11-20T01:47:38;3.20;99.90
25154;DHT22;47555;51.038;6.280;2022-11-20T01:50:14;3.20;99.90
25154;DHT22;47555;51.038;6.280;2022-11-20T01:52:52;3.20;99.90
25154;DHT22;47555;51.038;6.280;2022-11-20T01:55:23;3.40;99.90
25154;DHT22;47555;51.038;6.280;2022-11-20T01:57:50;3.20;99.90
25154;DHT22;47555;51.038;6.280;2022-11-20T02:00:18;3.30;99.90
25154;DHT22;47555;51.038;6.280;2022-11-20T02:02:57;3.20;99.90
25154;DHT22;47555;51.038;6.280;2022-11-20T02:07:54;3.20;99.90
25154;DHT22;47555;51.038;6.280;2022-11-20T02:10:21;3.30;99.90
25154;DHT22;47555;51.038;6.280;2022-11-20T02:12:47;3.20;99.90
25154;DHT22;47555;51.038;6.280;2022-11-20T02:15:32;3.20;99.90
25154;DHT22;47555;51.038;6.280;2022-11-20T02:17:58;3.30;99.90
25154;DHT22;47555;51.038;6.280;2022-11-20T02:20:24;3.30;99.90
25154;DHT22;47555;51.038;6.280;2022-11-20T02:23:12;3.30;99.90
25154;DHT22;47555;51.038;6.280;2022-11-20T02:25:40;3.30;99.90
25154;DHT22;47555;51.038;6.280;2022-11-20T02:28:06;3.30;99.90
25154;DHT22;47555;51.038;6.280;2022-11-20T02:30:32;3.40;99.90
25154;DHT22;47555;51.038;6.280;2022-11-20T02:32:58;3.30;99.90
25154;DHT22;47555;51.038;6.280;2022-11-20T02:37:53;3.30;99.90
25154;DHT22;47555;51.038;6.280;2022-11-20T02:40:20;3.30;99.90
25154;DHT22;47555;51.038;6.280;2022-11-20T02:42:45;3.30;99.90
25154;DHT22;47555;51.038;6.280;2022-11-20T02:45:11;3.40;99.90
25154;DHT22;47555;51.038;6.280;2022-11-20T02:47:37;3.40;99.90
25154;DHT22;47555;51.038;6.280;2022-11-20T02:50:03;3.40;99.90
25154;DHT22;47555;51.038;6.280;2022-11-20T02:52:30;3.40;99.90
25154;DHT22;47555;51.038;6.280;2022-11-20T02:54:55;3.40;99.90
25154;DHT22;47555;51.038;6.280;2022-11-20T02:57:21;3.40;99.90
25154;DHT22;47555;51.038;6.280;2022-11-20T02:59:46;3.40;99.90
25154;DHT22;47555;51.038;6.280;2022-11-20T03:02:12;3.40;99.90
25154;DHT22;47555;51.038;6.280;2022-11-20T03:04:37;3.40;99.90
25154;DHT22;47555;51.038;6.280;2022-11-20T03:07:04;3.40;99.90
25154;DHT22;47555;51.038;6.280;2022-11-20T03:09:30;3.40;99.90
25154;DHT22;47555;51.038;6.280;2022-11-20T03:11:55;3.40;99.90
25154;DHT22;47555;51.038;6.280;2022-11-20T03:14:21;3.40;99.90
25154;DHT22;47555;51.038;6.280;2022-11-20T03:16:46;3.50;99.90
25154;DHT22;47555;51.038;6.280;2022-11-20T03:19:12;3.50;99.90
25154;DHT22;47555;51.038;6.280;2022-11-20T03:21:40;3.50;99.90
25154;DHT22;47555;51.038;6.280;2022-11-20T03:24:06;3.50;99.90
25154;DHT22;47555;51.038;6.280;2022-11-20T03:26:32;3.50;99.90
25154;DHT22;47555;51.038;6.280;2022-11-20T03:28:59;3.50;99.90
25154;DHT22;47555;51.038;6.280;2022-11-20T03:31:27;3.50;99.90
25154;DHT22;47555;51.038;6.280;2022-11-20T03:33:53;3.60;99.90
25154;DHT22;47555;51.038;6.280;2022-11-20T03:36:20;3.50;99.90
25154;DHT22;47555;51.038;6.280;2022-11-20T03:38:46;3.60;99.90
25154;DHT22;47555;51.038;6.280;2022-11-20T03:41:15;3.60;99.90
25154;DHT22;47555;51.038;6.280;2022-11-20T03:43:41;3.60;99.90
25154;DHT22;47555;51.038;6.280;2022-11-20T03:46:07;3.60;99.90
25154;DHT22;47555;51.038;6.280;2022-11-20T03:48:33;3.60;99.90
25154;DHT22;47555;51.038;6.280;2022-11-20T03:51:42;3.60;99.90
25154;DHT22;47555;51.038;6.280;2022-11-20T03:54:03;3.60;99.90
25154;DHT22;47555;51.038;6.280;2022-11-20T03:56:31;3.60;99.90
25154;DHT22;47555;51.038;6.280;2022-11-20T03:58:57;3.60;99.90
25154;DHT22;47555;51.038;6.280;2022-11-20T04:01:34;3.60;99.90
25154;DHT22;47555;51.038;6.280;2022-11-20T04:03:59;3.60;99.90
25154;DHT22;47555;51.038;6.280;2022-11-20T04:06:43;3.60;99.90
25154;DHT22;47555;51.038;6.280;2022-11-20T04:09:09;3.60;99.90
25154;DHT22;47555;51.038;6.280;2022-11-20T04:11:36;3.60;99.90
25154;DHT22;47555;51.038;6.280;2022-11-20T04:14:11;3.60;99.90
25154;DHT22;47555;51.038;6.280;2022-11-20T04:16:37;3.60;99.90
25154;DHT22;47555;51.038;6.280;2022-11-20T04:19:05;3.60;99.90
25154;DHT22;47555;51.038;6.280;2022-11-20T04:21:31;3.60;99.90
25154;DHT22;47555;51.038;6.280;2022-11-20T04:23:57;3.60;99.90
25154;DHT22;47555;51.038;6.280;2022-11-20T04:26:24;3.60;99.90
25154;DHT22;47555;51.038;6.280;2022-11-20T04:28:51;3.60;99.90
25154;DHT22;47555;51.038;6.280;2022-11-20T04:31:18;3.60;99.90
25154;DHT22;47555;51.038;6.280;2022-11-20T04:33:44;3.60;99.90
25154;DHT22;47555;51.038;6.280;2022-11-20T04:40:09;3.60;99.90
25154;DHT22;47555;51.038;6.280;2022-11-20T04:42:35;3.50;99.90
25154;DHT22;47555;51.038;6.280;2022-11-20T04:45:00;3.50;99.90
25154;DHT22;47555;51.038;6.280;2022-11-20T04:47:26;3.50;99.90
25154;DHT22;47555;51.038;6.280;2022-11-20T04:49:51;3.50;99.90
25154;DHT22;47555;51.038;6.280;2022-11-20T04:52:17;3.50;99.90
25154;DHT22;47555;51.038;6.280;2022-11-20T04:54:43;3.50;99.90
25154;DHT22;47555;51.038;6.280;2022-11-20T04:57:08;3.40;99.90
25154;DHT22;47555;51.038;6.280;2022-11-20T04:59:34;3.40;99.90
25154;DHT22;47555;51.038;6.280;2022-11-20T05:01:59;3.40;99.90
25154;DHT22;47555;51.038;6.280;2022-11-20T05:04:24;3.40;99.90
25154;DHT22;47555;51.038;6.280;2022-11-20T05:06:50;3.40;99.90
25154;DHT22;47555;51.038;6.280;2022-11-20T05:09:16;3.40;99.90
25154;DHT22;47555;51.038;6.280;2022-11-20T05:11:41;3.40;99.90
25154;DHT22;47555;51.038;6.280;2022-11-20T05:14:07;3.40;99.90
25154;DHT22;47555;51.038;6.280;2022-11-20T05:16:34;3.40;99.90
25154;DHT22;47555;51.038;6.280;2022-11-20T05:19:00;3.40;99.90
25154;DHT22;47555;51.038;6.280;2022-11-20T05:21:26;3.40;99.90
25154;DHT22;47555;51.038;6.280;2022-11-20T05:23:52;3.40;99.90
25154;DHT22;47555;51.038;6.280;2022-11-20T05:26:20;3.40;99.90
25154;DHT22;47555;51.038;6.280;2022-11-20T05:28:49;3.30;99.90
25154;DHT22;47555;51.038;6.280;2022-11-20T05:31:17;3.30;99.90
25154;DHT22;47555;51.038;6.280;2022-11-20T05:33:44;3.30;99.90
25154;DHT22;47555;51.038;6.280;2022-11-20T05:36:12;3.40;99.90
25154;DHT22;47555;51.038;6.280;2022-11-20T05:38:38;3.30;99.90
25154;DHT22;47555;51.038;6.280;2022-11-20T05:43:36;3.30;99.90
25154;DHT22;47555;51.038;6.280;2022-11-20T05:46:02;3.20;99.90
25154;DHT22;47555;51.038;6.280;2022-11-20T05:48:28;3.30;99.90
25154;DHT22;47555;51.038;6.280;2022-11-20T05:50:53;3.30;99.90
25154;DHT22;47555;51.038;6.280;2022-11-20T05:53:19;3.30;99.90
25154;DHT22;47555;51.038;6.280;2022-11-20T05:55:44;3.30;99.90
25154;DHT22;47555;51.038;6.280;2022-11-20T05:58:10;3.30;99.90
25154;DHT22;47555;51.038;6.280;2022-11-20T06:00:36;3.30;99.90
25154;DHT22;47555;51.038;6.280;2022-11-20T06:03:02;3.40;99.90
25154;DHT22;47555;51.038;6.280;2022-11-20T06:05:27;3.30;99.90
25154;DHT22;47555;51.038;6.280;2022-11-20T06:07:53;3.30;99.90
25154;DHT22;47555;51.038;6.280;2022-11-20T06:10:18;3.30;99.90
25154;DHT22;47555;51.038;6.280;2022-11-20T06:12:44;3.30;99.90
25154;DHT22;47555;51.038;6.280;2022-11-20T06:15:09;3.30;99.90
25154;DHT22;47555;51.038;6.280;2022-11-20T06:17:35;3.30;99.90
25154;DHT22;47555;51.038;6.280;2022-11-20T06:20:01;3.30;99.90
25154;DHT22;47555;51.038;6.280;2022-11-20T06:22:26;3.30;99.90
25154;DHT22;47555;51.038;6.280;2022-11-20T06:24:52;3.30;99.90
25154;DHT22;47555;51.038;6.280;2022-11-20T06:27:17;3.30;99.90
25154;DHT22;47555;51.038;6.280;2022-11-20T06:29:43;3.30;99.90
25154;DHT22;47555;51.038;6.280;2022-11-20T06:32:09;3.30;99.90
25154;DHT22;47555;51.038;6.280;2022-11-20T06:34:34;3.30;99.90
25154;DHT22;47555;51.038;6.280;2022-11-20T06:37:04;3.30;99.90
25154;DHT22;47555;51.038;6.280;2022-11-20T06:39:29;3.30;99.90
25154;DHT22;47555;51.038;6.280;2022-11-20T06:41:55;3.30;99.90
25154;DHT22;47555;51.038;6.280;2022-11-20T06:44:23;3.30;99.90
25154;DHT22;47555;51.038;6.280;2022-11-20T06:46:48;3.30;99.90
25154;DHT22;47555;51.038;6.280;2022-11-20T06:49:14;3.20;99.90
25154;DHT22;47555;51.038;6.280;2022-11-20T06:51:39;3.20;99.90
25154;DHT22;47555;51.038;6.280;2022-11-20T06:54:05;3.20;99.90
25154;DHT22;47555;51.038;6.280;2022-11-20T06:56:30;3.20;99.90
25154;DHT22;47555;51.038;6.280;2022-11-20T06:58:56;3.20;99.90
25154;DHT22;47555;51.038;6.280;2022-11-20T07:01:21;3.20;99.90
25154;DHT22;47555;51.038;6.280;2022-11-20T07:03:49;3.20;99.90
25154;DHT22;47555;51.038;6.280;2022-11-20T07:06:15;3.20;99.90
25154;DHT22;47555;51.038;6.280;2022-11-20T07:08:40;3.20;99.90
25154;DHT22;47555;51.038;6.280;2022-11-20T07:11:07;3.20;99.90
25154;DHT22;47555;51.038;6.280;2022-11-20T07:13:32;3.20;99.90
25154;DHT22;47555;51.038;6.280;2022-11-20T07:16:04;3.20;99.90
25154;DHT22;47555;51.038;6.280;2022-11-20T07:18:30;3.20;99.90
25154;DHT22;47555;51.038;6.280;2022-11-20T07:20:56;3.20;99.90
25154;DHT22;47555;51.038;6.280;2022-11-20T07:23:21;3.20;99.90
25154;DHT22;47555;51.038;6.280;2022-11-20T07:25:47;3.20;99.90
25154;DHT22;47555;51.038;6.280;2022-11-20T07:28:12;3.20;99.90
25154;DHT22;47555;51.038;6.280;2022-11-20T07:30:39;3.20;99.90
25154;DHT22;47555;51.038;6.280;2022-11-20T07:33:04;3.20;99.90
25154;DHT22;47555;51.038;6.280;2022-11-20T07:35:29;3.30;99.90
25154;DHT22;47555;51.038;6.280;2022-11-20T07:37:55;3.20;99.90
25154;DHT22;47555;51.038;6.280;2022-11-20T07:40:20;3.20;99.90
25154;DHT22;47555;51.038;6.280;2022-11-20T07:42:50;3.20;99.90
25154;DHT22;47555;51.038;6.280;2022-11-20T07:45:16;3.20;99.90
25154;DHT22;47555;51.038;6.280;2022-11-20T07:47:42;3.30;99.90
25154;DHT22;47555;51.038;6.280;2022-11-20T07:50:08;3.30;99.90
25154;DHT22;47555;51.038;6.280;2022-11-20T07:52:33;3.30;99.90
25154;DHT22;47555;51.038;6.280;2022-11-20T07:54:59;3.30;99.90
25154;DHT22;47555;51.038;6.280;2022-11-20T07:57:24;3.40;99.90
25154;DHT22;47555;51.038;6.280;2022-11-20T07:59:50;3.30;99.90
25154;DHT22;47555;51.038;6.280;2022-11-20T08:02:15;3.40;99.90
25154;DHT22;47555;51.038;6.280;2022-11-20T08:04:41;3.40;99.90
25154;DHT22;47555;51.038;6.280;2022-11-20T08:07:21;3.40;99.90
25154;DHT22;47555;51.038;6.280;2022-11-20T08:09:46;3.50;99.90
25154;DHT22;47555;51.038;6.280;2022-11-20T08:12:19;3.50;99.90
25154;DHT22;47555;51.038;6.280;2022-11-20T08:15:04;3.50;99.90
25154;DHT22;47555;51.038;6.280;2022-11-20T08:17:30;3.50;99.90
25154;DHT22;47555;51.038;6.280;2022-11-20T08:19:55;3.50;99.90
25154;DHT22;47555;51.038;6.280;2022-11-20T08:22:21;3.50;99.90
25154;DHT22;47555;51.038;6.280;2022-11-20T08:24:47;3.60;99.90
25154;DHT22;47555;51.038;6.280;2022-11-20T08:27:13;3.60;99.90
25154;DHT22;47555;51.038;6.280;2022-11-20T08:29:38;3.60;99.90
25154;DHT22;47555;51.038;6.280;2022-11-20T08:32:04;3.60;99.90
25154;DHT22;47555;51.038;6.280;2022-11-20T08:34:29;3.60;99.90
25154;DHT22;47555;51.038;6.280;2022-11-20T08:36:55;3.60;99.90
25154;DHT22;47555;51.038;6.280;2022-11-20T08:39:20;3.60;99.90
25154;DHT22;47555;51.038;6.280;2022-11-20T08:41:46;3.60;99.90
25154;DHT22;47555;51.038;6.280;2022-11-20T08:44:11;3.60;99.90
25154;DHT22;47555;51.038;6.280;2022-11-20T08:46:39;3.60;99.90
25154;DHT22;47555;51.038;6.280;2022-11-20T08:49:08;3.60;99.90
25154;DHT22;47555;51.038;6.280;2022-11-20T08:51:34;3.70;99.90
25154;DHT22;47555;51.038;6.280;2022-11-20T08:54:00;3.70;99.90
25154;DHT22;47555;51.038;6.280;2022-11-20T08:56:26;3.80;99.90
25154;DHT22;47555;51.038;6.280;2022-11-20T08:58:51;3.80;99.90
25154;DHT22;47555;51.038;6.280;2022-11-20T09:01:21;3.90;99.90
25154;DHT22;47555;51.038;6.280;2022-11-20T09:03:47;4.00;99.90
25154;DHT22;47555;51.038;6.280;2022-11-20T09:06:13;4.00;99.90
25154;DHT22;47555;51.038;6.280;2022-11-20T09:08:39;4.00;99.90
25154;DHT22;47555;51.038;6.280;2022-11-20T09:11:05;4.10;99.90
25154;DHT22;47555;51.038;6.280;2022-11-20T09:13:32;4.20;99.90
25154;DHT22;47555;51.038;6.280;2022-11-20T09:16:04;4.30;99.90
25154;DHT22;47555;51.038;6.280;2022-11-20T09:18:33;4.30;99.90
25154;DHT22;47555;51.038;6.280;2022-11-20T09:21:03;4.40;99.90
25154;DHT22;47555;51.038;6.280;2022-11-20T09:23:32;4.50;99.90
25154;DHT22;47555;51.038;6.280;2022-11-20T09:26:02;4.50;99.90
25154;DHT22;47555;51.038;6.280;2022-11-20T09:28:27;4.60;99.90
25154;DHT22;47555;51.038;6.280;2022-11-20T09:30:53;4.70;99.90
25154;DHT22;47555;51.038;6.280;2022-11-20T09:33:18;4.70;99.90
25154;DHT22;47555;51.038;6.280;2022-11-20T09:35:44;4.70;99.90
25154;DHT22;47555;51.038;6.280;2022-11-20T09:38:10;4.70;99.90
25154;DHT22;47555;51.038;6.280;2022-11-20T09:40:39;4.80;99.90
25154;DHT22;47555;51.038;6.280;2022-11-20T09:46:05;4.80;99.90
25154;DHT22;47555;51.038;6.280;2022-11-20T09:48:55;4.80;99.90
25154;DHT22;47555;51.038;6.280;2022-11-20T09:54:19;4.80;99.90
25154;DHT22;47555;51.038;6.280;2022-11-20T09:56:55;4.90;99.90
25154;DHT22;47555;51.038;6.280;2022-11-20T09:59:42;4.90;99.90
25154;DHT22;47555;51.038;6.280;2022-11-20T10:04:57;5.00;99.90
25154;DHT22;47555;51.038;6.280;2022-11-20T10:07:38;4.90;99.90
25154;DHT22;47555;51.038;6.280;2022-11-20T10:10:15;5.00;99.90
25154;DHT22;47555;51.038;6.280;2022-11-20T10:15:29;5.00;99.90
25154;DHT22;47555;51.038;6.280;2022-11-20T10:18:11;5.10;99.90
25154;DHT22;47555;51.038;6.280;2022-11-20T10:26:06;5.10;99.90
25154;DHT22;47555;51.038;6.280;2022-11-20T10:28:42;5.10;99.90
25154;DHT22;47555;51.038;6.280;2022-11-20T10:31:23;5.00;99.90
25154;DHT22;47555;51.038;6.280;2022-11-20T10:33:53;4.90;99.90
25154;DHT22;47555;51.038;6.280;2022-11-20T10:36:24;4.90;99.90
25154;DHT22;47555;51.038;6.280;2022-11-20T10:39:24;4.90;99.90
25154;DHT22;47555;51.038;6.280;2022-11-20T10:41:52;4.90;99.90
25154;DHT22;47555;51.038;6.280;2022-11-20T10:44:27;4.90;99.90
25154;DHT22;47555;51.038;6.280;2022-11-20T10:47:17;4.90;99.90
25154;DHT22;47555;51.038;6.280;2022-11-20T10:49:50;4.90;99.90
25154;DHT22;47555;51.038;6.280;2022-11-20T10:55:25;5.10;99.90
25154;DHT22;47555;51.038;6.280;2022-11-20T10:58:14;5.10;99.90
25154;DHT22;47555;51.038;6.280;2022-11-20T11:00:38;5.10;99.90
25154;DHT22;47555;51.038;6.280;2022-11-20T11:03:20;5.20;99.90
25154;DHT22;47555;51.038;6.280;2022-11-20T11:06:37;5.20;99.90
25154;DHT22;47555;51.038;6.280;2022-11-20T11:08:39;5.20;99.90
25154;DHT22;47555;51.038;6.280;2022-11-20T11:11:25;5.20;99.90
25154;DHT22;47555;51.038;6.280;2022-11-20T11:13:52;5.30;99.90
25154;DHT22;47555;51.038;6.280;2022-11-20T11:16:24;5.30;99.90
25154;DHT22;47555;51.038;6.280;2022-11-20T11:18:50;5.40;99.90
25154;DHT22;47555;51.038;6.280;2022-11-20T11:21:25;5.40;99.90
25154;DHT22;47555;51.038;6.280;2022-11-20T11:24:03;5.40;99.90
25154;DHT22;47555;51.038;6.280;2022-11-20T11:26:29;5.40;99.90
25154;DHT22;47555;51.038;6.280;2022-11-20T11:28:56;5.40;99.90
25154;DHT22;47555;51.038;6.280;2022-11-20T11:31:23;5.40;99.90
25154;DHT22;47555;51.038;6.280;2022-11-20T11:33:49;5.40;99.90
25154;DHT22;47555;51.038;6.280;2022-11-20T11:36:20;5.40;99.90
25154;DHT22;47555;51.038;6.280;2022-11-20T11:38:51;5.40;99.90
25154;DHT22;47555;51.038;6.280;2022-11-20T11:41:21;5.50;99.90
25154;DHT22;47555;51.038;6.280;2022-11-20T11:43:56;5.50;99.90
25154;DHT22;47555;51.038;6.280;2022-11-20T11:46:52;5.50;99.90
25154;DHT22;47555;51.038;6.280;2022-11-20T11:49:19;5.50;99.90
25154;DHT22;47555;51.038;6.280;2022-11-20T11:54:20;5.60;99.90
25154;DHT22;47555;51.038;6.280;2022-11-20T11:56:47;5.60;99.90
25154;DHT22;47555;51.038;6.280;2022-11-20T11:59:23;5.70;99.90
25154;DHT22;47555;51.038;6.280;2022-11-20T12:01:54;5.70;99.90
25154;DHT22;47555;51.038;6.280;2022-11-20T12:10:45;5.70;99.90
25154;DHT22;47555;51.038;6.280;2022-11-20T12:15:46;5.70;99.90
25154;DHT22;47555;51.038;6.280;2022-11-20T12:18:18;5.70;99.90
25154;DHT22;47555;51.038;6.280;2022-11-20T12:21:17;5.80;99.90
25154;DHT22;47555;51.038;6.280;2022-11-20T12:24:27;5.80;99.90
25154;DHT22;47555;51.038;6.280;2022-11-20T12:30:20;5.80;99.90
25154;DHT22;47555;51.038;6.280;2022-11-20T12:33:07;5.90;99.90
25154;DHT22;47555;51.038;6.280;2022-11-20T12:36:15;5.90;99.90
25154;DHT22;47555;51.038;6.280;2022-11-20T12:38:55;5.90;99.90
25154;DHT22;47555;51.038;6.280;2022-11-20T12:41:40;6.00;99.90
25154;DHT22;47555;51.038;6.280;2022-11-20T12:48:01;6.00;99.90
25154;DHT22;47555;51.038;6.280;2022-11-20T12:53:32;6.00;99.90
25154;DHT22;47555;51.038;6.280;2022-11-20T13:01:56;6.00;99.90
25154;DHT22;47555;51.038;6.280;2022-11-20T13:07:03;6.00;99.90
25154;DHT22;47555;51.038;6.280;2022-11-20T13:09:30;6.00;99.90
25154;DHT22;47555;51.038;6.280;2022-11-20T13:12:10;6.00;99.90
25154;DHT22;47555;51.038;6.280;2022-11-20T13:14:56;6.10;99.90
25154;DHT22;47555;51.038;6.280;2022-11-20T13:17:35;6.10;99.90
25154;DHT22;47555;51.038;6.280;2022-11-20T13:20:03;6.10;99.90
25154;DHT22;47555;51.038;6.280;2022-11-20T13:22:48;6.10;99.90
25154;DHT22;47555;51.038;6.280;2022-11-20T13:25:34;6.10;99.90
25154;DHT22;47555;51.038;6.280;2022-11-20T13:30:36;6.10;99.90
25154;DHT22;47555;51.038;6.280;2022-11-20T13:33:08;6.10;99.90
25154;DHT22;47555;51.038;6.280;2022-11-20T13:35:36;6.10;99.90
25154;DHT22;47555;51.038;6.280;2022-11-20T13:38:11;6.10;99.90
25154;DHT22;47555;51.038;6.280;2022-11-20T13:40:59;6.10;99.90
25154;DHT22;47555;51.038;6.280;2022-11-20T13:43:47;6.20;99.90
25154;DHT22;47555;51.038;6.280;2022-11-20T13:46:12;6.10;99.90
25154;DHT22;47555;51.038;6.280;2022-11-20T13:48:40;6.10;99.90
25154;DHT22;47555;51.038;6.280;2022-11-20T13:51:44;6.20;99.90
25154;DHT22;47555;51.038;6.280;2022-11-20T13:54:50;6.10;99.90
25154;DHT22;47555;51.038;6.280;2022-11-20T14:02:41;6.10;99.90
25154;DHT22;47555;51.038;6.280;2022-11-20T14:05:23;6.10;99.90
25154;DHT22;47555;51.038;6.280;2022-11-20T14:07:50;6.20;99.90
25154;DHT22;47555;51.038;6.280;2022-11-20T14:10:26;6.10;99.90
25154;DHT22;47555;51.038;6.280;2022-11-20T14:12:52;6.10;99.90
25154;DHT22;47555;51.038;6.280;2022-11-20T14:15:25;6.10;99.90
25154;DHT22;47555;51.038;6.280;2022-11-20T14:17:51;6.10;99.90
25154;DHT22;47555;51.038;6.280;2022-11-20T14:20:17;6.10;99.90
25154;DHT22;47555;51.038;6.280;2022-11-20T14:22:49;6.10;99.90
25154;DHT22;47555;51.038;6.280;2022-11-20T14:27:43;6.20;99.90
25154;DHT22;47555;51.038;6.280;2022-11-20T14:30:16;6.20;99.90
25154;DHT22;47555;51.038;6.280;2022-11-20T14:32:43;6.20;99.90
25154;DHT22;47555;51.038;6.280;2022-11-20T14:35:13;6.20;99.90
25154;DHT22;47555;51.038;6.280;2022-11-20T14:37:40;6.20;99.90
25154;DHT22;47555;51.038;6.280;2022-11-20T14:40:33;6.30;99.90
25154;DHT22;47555;51.038;6.280;2022-11-20T14:45:41;6.30;99.90
25154;DHT22;47555;51.038;6.280;2022-11-20T14:48:09;6.30;99.90
25154;DHT22;47555;51.038;6.280;2022-11-20T14:50:38;6.30;99.90
25154;DHT22;47555;51.038;6.280;2022-11-20T14:53:04;6.30;99.90
25154;DHT22;47555;51.038;6.280;2022-11-20T14:55:35;6.40;99.90
25154;DHT22;47555;51.038;6.280;2022-11-20T14:58:04;6.40;99.90
25154;DHT22;47555;51.038;6.280;2022-11-20T15:00:31;6.40;99.90
25154;DHT22;47555;51.038;6.280;2022-11-20T15:02:57;6.40;99.90
25154;DHT22;47555;51.038;6.280;2022-11-20T15:05:37;6.50;99.90
25154;DHT22;47555;51.038;6.280;2022-11-20T15:08:09;6.50;99.90
25154;DHT22;47555;51.038;6.280;2022-11-20T15:10:35;6.60;99.90
25154;DHT22;47555;51.038;6.280;2022-11-20T15:13:11;6.50;99.90
25154;DHT22;47555;51.038;6.280;2022-11-20T15:15:48;6.60;99.90
25154;DHT22;47555;51.038;6.280;2022-11-20T15:18:36;6.50;99.90
25154;DHT22;47555;51.038;6.280;2022-11-20T15:21:06;6.50;99.90
25154;DHT22;47555;51.038;6.280;2022-11-20T15:23:34;6.60;99.90
25154;DHT22;47555;51.038;6.280;2022-11-20T15:26:00;6.50;99.90
25154;DHT22;47555;51.038;6.280;2022-11-20T15:28:34;6.60;99.90
25154;DHT22;47555;51.038;6.280;2022-11-20T15:31:01;6.60;99.90
25154;DHT22;47555;51.038;6.280;2022-11-20T15:33:28;6.60;99.90
25154;DHT22;47555;51.038;6.280;2022-11-20T15:35:54;6.60;99.90
25154;DHT22;47555;51.038;6.280;2022-11-20T15:38:19;6.50;99.90
25154;DHT22;47555;51.038;6.280;2022-11-20T15:40:45;6.50;99.90
25154;DHT22;47555;51.038;6.280;2022-11-20T15:43:10;6.50;99.90
25154;DHT22;47555;51.038;6.280;2022-11-20T15:45:45;6.50;99.90
25154;DHT22;47555;51.038;6.280;2022-11-20T15:48:14;6.50;99.90
25154;DHT22;47555;51.038;6.280;2022-11-20T15:50:54;6.50;99.90
25154;DHT22;47555;51.038;6.280;2022-11-20T15:53:21;6.60;99.90
25154;DHT22;47555;51.038;6.280;2022-11-20T15:55:47;6.50;99.90
25154;DHT22;47555;51.038;6.280;2022-11-20T15:58:12;6.60;99.90
25154;DHT22;47555;51.038;6.280;2022-11-20T16:00:38;6.60;99.90
25154;DHT22;47555;51.038;6.280;2022-11-20T16:03:04;6.60;99.90
25154;DHT22;47555;51.038;6.280;2022-11-20T16:05:29;6.60;99.90
25154;DHT22;47555;51.038;6.280;2022-11-20T16:07:55;6.60;99.90
25154;DHT22;47555;51.038;6.280;2022-11-20T16:10:22;6.60;99.90
25154;DHT22;47555;51.038;6.280;2022-11-20T16:12:47;6.60;99.90
25154;DHT22;47555;51.038;6.280;2022-11-20T16:15:31;6.60;99.90
25154;DHT22;47555;51.038;6.280;2022-11-20T16:18:19;6.60;99.90
25154;DHT22;47555;51.038;6.280;2022-11-20T16:20:51;6.60;99.90
25154;DHT22;47555;51.038;6.280;2022-11-20T16:23:17;6.60;99.90
25154;DHT22;47555;51.038;6.280;2022-11-20T16:25:43;6.50;99.90
25154;DHT22;47555;51.038;6.280;2022-11-20T16:28:09;6.60;99.90
25154;DHT22;47555;51.038;6.280;2022-11-20T16:30:38;6.60;99.90
25154;DHT22;47555;51.038;6.280;2022-11-20T16:33:10;6.50;99.90
25154;DHT22;47555;51.038;6.280;2022-11-20T16:35:37;6.50;99.90
25154;DHT22;47555;51.038;6.280;2022-11-20T16:38:02;6.50;99.90
25154;DHT22;47555;51.038;6.280;2022-11-20T16:40:28;6.50;99.90
25154;DHT22;47555;51.038;6.280;2022-11-20T16:42:54;6.50;99.90
25154;DHT22;47555;51.038;6.280;2022-11-20T16:45:20;6.50;99.90
25154;DHT22;47555;51.038;6.280;2022-11-20T16:47:45;6.50;99.90
25154;DHT22;47555;51.038;6.280;2022-11-20T16:50:11;6.50;99.90
25154;DHT22;47555;51.038;6.280;2022-11-20T16:52:36;6.50;99.90
25154;DHT22;47555;51.038;6.280;2022-11-20T16:55:02;6.50;99.90
25154;DHT22;47555;51.038;6.280;2022-11-20T16:57:29;6.50;99.90
25154;DHT22;47555;51.038;6.280;2022-11-20T16:59:55;6.50;99.90
25154;DHT22;47555;51.038;6.280;2022-11-20T17:02:21;6.50;99.90
25154;DHT22;47555;51.038;6.280;2022-11-20T17:04:46;6.60;99.90
25154;DHT22;47555;51.038;6.280;2022-11-20T17:07:12;6.60;99.90
25154;DHT22;47555;51.038;6.280;2022-11-20T17:09:38;6.60;99.90
25154;DHT22;47555;51.038;6.280;2022-11-20T17:12:04;6.60;99.90
25154;DHT22;47555;51.038;6.280;2022-11-20T17:14:29;6.60;99.90
25154;DHT22;47555;51.038;6.280;2022-11-20T17:16:55;6.60;99.90
25154;DHT22;47555;51.038;6.280;2022-11-20T17:19:20;6.60;99.90
25154;DHT22;47555;51.038;6.280;2022-11-20T17:21:46;6.60;99.90
25154;DHT22;47555;51.038;6.280;2022-11-20T17:24:12;6.60;99.90